sensor_id;sensor_type;location;lat;lon;timestamp;P1;durP1;ratioP1;P2;durP2;ratioP2
70467;SDS011;57934;51.532;7.684;2022-11-20T00:00:16;35.85;;;19.92;;
70467;SDS011;57934;51.532;7.684;2022-11-20T00:02:42;32.95;;;18.98;;
70467;SDS011;57934;51.532;7.684;2022-11-20T00:05:08;39.42;;;19.23;;
70467;SDS011;57934;51.532;7.684;2022-11-20T00:07:34;34.95;;;19.15;;
70467;SDS011;57934;51.532;7.684;2022-11-20T00:10:00;37.38;;;20.48;;
70467;SDS011;57934;51.532;7.684;2022-11-20T00:12:27;38.65;;;19.45;;
70467;SDS011;57934;51.532;7.684;2022-11-20T00:14:53;32.50;;;18.02;;
70467;SDS011;57934;51.532;7.684;2022-11-20T00:17:19;54.70;;;26.98;;
70467;SDS011;57934;51.532;7.684;2022-11-20T00:19:45;73.78;;;33.78;;
70467;SDS011;57934;51.532;7.684;2022-11-20T00:22:11;59.92;;;30.85;;
70467;SDS011;57934;51.532;7.684;2022-11-20T00:24:37;55.45;;;27.80;;
70467;SDS011;57934;51.532;7.684;2022-11-20T00:27:03;48.38;;;25.13;;
70467;SDS011;57934;51.532;7.684;2022-11-20T00:29:29;43.35;;;23.20;;
70467;SDS011;57934;51.532;7.684;2022-11-20T00:31:55;39.10;;;20.40;;
70467;SDS011;57934;51.532;7.684;2022-11-20T00:34:21;35.53;;;19.63;;
70467;SDS011;57934;51.532;7.684;2022-11-20T00:36:47;33.83;;;19.00;;
70467;SDS011;57934;51.532;7.684;2022-11-20T00:39:13;35.13;;;19.33;;
70467;SDS011;57934;51.532;7.684;2022-11-20T00:41:39;35.45;;;19.02;;
70467;SDS011;57934;51.532;7.684;2022-11-20T00:44:05;34.78;;;19.27;;
70467;SDS011;57934;51.532;7.684;2022-11-20T00:46:32;35.47;;;19.25;;
70467;SDS011;57934;51.532;7.684;2022-11-20T00:48:58;32.85;;;19.40;;
70467;SDS011;57934;51.532;7.684;2022-11-20T00:51:24;35.35;;;19.02;;
70467;SDS011;57934;51.532;7.684;2022-11-20T00:53:54;32.40;;;19.15;;
70467;SDS011;57934;51.532;7.684;2022-11-20T00:56:21;30.08;;;18.17;;
70467;SDS011;57934;51.532;7.684;2022-11-20T00:58:47;40.00;;;20.63;;
70467;SDS011;57934;51.532;7.684;2022-11-20T01:01:24;33.35;;;19.00;;
70467;SDS011;57934;51.532;7.684;2022-11-20T01:03:52;30.05;;;17.50;;
70467;SDS011;57934;51.532;7.684;2022-11-20T01:06:26;33.55;;;18.30;;
70467;SDS011;57934;51.532;7.684;2022-11-20T01:08:56;31.73;;;17.58;;
70467;SDS011;57934;51.532;7.684;2022-11-20T01:11:30;28.85;;;17.70;;
70467;SDS011;57934;51.532;7.684;2022-11-20T01:13:59;27.67;;;16.65;;
70467;SDS011;57934;51.532;7.684;2022-11-20T01:16:28;27.73;;;17.20;;
70467;SDS011;57934;51.532;7.684;2022-11-20T01:18:57;27.27;;;16.45;;
70467;SDS011;57934;51.532;7.684;2022-11-20T01:21:26;25.27;;;15.88;;
70467;SDS011;57934;51.532;7.684;2022-11-20T01:23:54;29.25;;;17.05;;
70467;SDS011;57934;51.532;7.684;2022-11-20T01:26:21;28.77;;;17.13;;
70467;SDS011;57934;51.532;7.684;2022-11-20T01:28:49;30.17;;;17.05;;
70467;SDS011;57934;51.532;7.684;2022-11-20T01:31:19;25.85;;;15.80;;
70467;SDS011;57934;51.532;7.684;2022-11-20T01:33:48;26.83;;;16.25;;
70467;SDS011;57934;51.532;7.684;2022-11-20T01:36:15;25.13;;;15.93;;
70467;SDS011;57934;51.532;7.684;2022-11-20T01:38:42;28.58;;;16.42;;
70467;SDS011;57934;51.532;7.684;2022-11-20T01:41:09;31.15;;;16.50;;
70467;SDS011;57934;51.532;7.684;2022-11-20T01:43:36;27.75;;;16.52;;
70467;SDS011;57934;51.532;7.684;2022-11-20T01:51:17;27.48;;;15.95;;
70467;SDS011;57934;51.532;7.684;2022-11-20T01:53:48;31.77;;;17.77;;
70467;SDS011;57934;51.532;7.684;2022-11-20T01:56:17;32.03;;;18.42;;
70467;SDS011;57934;51.532;7.684;2022-11-20T01:58:51;30.63;;;17.23;;
70467;SDS011;57934;51.532;7.684;2022-11-20T02:01:20;28.20;;;16.88;;
70467;SDS011;57934;51.532;7.684;2022-11-20T02:03:47;30.15;;;17.02;;
70467;SDS011;57934;51.532;7.684;2022-11-20T02:06:19;33.78;;;19.35;;
70467;SDS011;57934;51.532;7.684;2022-11-20T02:08:50;30.52;;;19.13;;
70467;SDS011;57934;51.532;7.684;2022-11-20T02:11:17;29.00;;;18.67;;
70467;SDS011;57934;51.532;7.684;2022-11-20T02:13:43;35.55;;;19.65;;
70467;SDS011;57934;51.532;7.684;2022-11-20T02:16:11;34.92;;;19.92;;
70467;SDS011;57934;51.532;7.684;2022-11-20T02:18:40;29.10;;;17.95;;
70467;SDS011;57934;51.532;7.684;2022-11-20T02:21:16;29.90;;;18.23;;
70467;SDS011;57934;51.532;7.684;2022-11-20T02:24:18;30.05;;;16.27;;
70467;SDS011;57934;51.532;7.684;2022-11-20T02:26:48;26.83;;;15.40;;
70467;SDS011;57934;51.532;7.684;2022-11-20T02:29:26;27.48;;;15.88;;
70467;SDS011;57934;51.532;7.684;2022-11-20T02:31:56;23.35;;;14.93;;
70467;SDS011;57934;51.532;7.684;2022-11-20T02:34:24;23.65;;;15.57;;
70467;SDS011;57934;51.532;7.684;2022-11-20T02:36:50;25.77;;;15.18;;
70467;SDS011;57934;51.532;7.684;2022-11-20T02:39:17;24.90;;;15.98;;
70467;SDS011;57934;51.532;7.684;2022-11-20T02:41:45;27.27;;;16.33;;
70467;SDS011;57934;51.532;7.684;2022-11-20T02:44:11;25.58;;;16.15;;
70467;SDS011;57934;51.532;7.684;2022-11-20T02:46:37;21.15;;;13.50;;
70467;SDS011;57934;51.532;7.684;2022-11-20T02:49:04;22.85;;;14.32;;
70467;SDS011;57934;51.532;7.684;2022-11-20T02:51:31;25.10;;;15.88;;
70467;SDS011;57934;51.532;7.684;2022-11-20T02:53:58;34.75;;;19.48;;
70467;SDS011;57934;51.532;7.684;2022-11-20T02:56:24;30.35;;;19.25;;
70467;SDS011;57934;51.532;7.684;2022-11-20T02:58:51;33.67;;;19.40;;
70467;SDS011;57934;51.532;7.684;2022-11-20T03:01:17;32.88;;;18.45;;
70467;SDS011;57934;51.532;7.684;2022-11-20T03:03:43;28.88;;;19.27;;
70467;SDS011;57934;51.532;7.684;2022-11-20T03:06:09;29.27;;;17.98;;
70467;SDS011;57934;51.532;7.684;2022-11-20T03:08:35;29.73;;;17.98;;
70467;SDS011;57934;51.532;7.684;2022-11-20T03:11:02;28.90;;;18.90;;
70467;SDS011;57934;51.532;7.684;2022-11-20T03:13:30;29.38;;;17.40;;
70467;SDS011;57934;51.532;7.684;2022-11-20T03:15:56;31.42;;;17.70;;
70467;SDS011;57934;51.532;7.684;2022-11-20T03:18:22;27.92;;;17.15;;
70467;SDS011;57934;51.532;7.684;2022-11-20T03:20:48;26.92;;;16.38;;
70467;SDS011;57934;51.532;7.684;2022-11-20T03:23:14;31.85;;;17.30;;
70467;SDS011;57934;51.532;7.684;2022-11-20T03:25:40;25.30;;;16.55;;
70467;SDS011;57934;51.532;7.684;2022-11-20T03:28:06;24.75;;;16.00;;
70467;SDS011;57934;51.532;7.684;2022-11-20T03:30:32;26.80;;;17.05;;
70467;SDS011;57934;51.532;7.684;2022-11-20T03:32:59;25.52;;;15.90;;
70467;SDS011;57934;51.532;7.684;2022-11-20T03:35:25;24.58;;;15.32;;
70467;SDS011;57934;51.532;7.684;2022-11-20T03:37:51;25.42;;;16.08;;
70467;SDS011;57934;51.532;7.684;2022-11-20T03:40:17;23.15;;;15.13;;
70467;SDS011;57934;51.532;7.684;2022-11-20T03:42:44;24.58;;;15.30;;
70467;SDS011;57934;51.532;7.684;2022-11-20T03:45:13;26.20;;;14.90;;
70467;SDS011;57934;51.532;7.684;2022-11-20T03:47:41;25.17;;;15.40;;
70467;SDS011;57934;51.532;7.684;2022-11-20T03:50:08;26.70;;;16.17;;
70467;SDS011;57934;51.532;7.684;2022-11-20T03:52:35;28.48;;;17.50;;
70467;SDS011;57934;51.532;7.684;2022-11-20T03:55:01;25.75;;;16.60;;
70467;SDS011;57934;51.532;7.684;2022-11-20T03:57:27;28.88;;;16.75;;
70467;SDS011;57934;51.532;7.684;2022-11-20T03:59:53;29.15;;;17.33;;
70467;SDS011;57934;51.532;7.684;2022-11-20T04:02:19;28.23;;;17.83;;
70467;SDS011;57934;51.532;7.684;2022-11-20T04:04:45;27.13;;;17.80;;
70467;SDS011;57934;51.532;7.684;2022-11-20T04:07:11;26.30;;;17.25;;
70467;SDS011;57934;51.532;7.684;2022-11-20T04:09:37;29.50;;;18.23;;
70467;SDS011;57934;51.532;7.684;2022-11-20T04:12:04;28.77;;;17.98;;
70467;SDS011;57934;51.532;7.684;2022-11-20T04:14:30;27.13;;;17.63;;
70467;SDS011;57934;51.532;7.684;2022-11-20T04:16:56;28.13;;;17.77;;
70467;SDS011;57934;51.532;7.684;2022-11-20T04:19:22;28.55;;;17.85;;
70467;SDS011;57934;51.532;7.684;2022-11-20T04:21:48;30.77;;;18.85;;
70467;SDS011;57934;51.532;7.684;2022-11-20T04:24:14;29.45;;;17.52;;
70467;SDS011;57934;51.532;7.684;2022-11-20T04:26:40;26.42;;;17.45;;
70467;SDS011;57934;51.532;7.684;2022-11-20T04:29:09;26.80;;;17.17;;
70467;SDS011;57934;51.532;7.684;2022-11-20T04:31:36;26.73;;;16.27;;
70467;SDS011;57934;51.532;7.684;2022-11-20T04:34:03;18.30;;;12.48;;
70467;SDS011;57934;51.532;7.684;2022-11-20T04:36:30;24.23;;;14.88;;
70467;SDS011;57934;51.532;7.684;2022-11-20T04:38:59;26.83;;;16.38;;
70467;SDS011;57934;51.532;7.684;2022-11-20T04:41:28;29.33;;;16.75;;
70467;SDS011;57934;51.532;7.684;2022-11-20T04:43:59;23.73;;;15.48;;
70467;SDS011;57934;51.532;7.684;2022-11-20T04:46:32;26.17;;;16.52;;
70467;SDS011;57934;51.532;7.684;2022-11-20T04:49:00;24.45;;;15.52;;
70467;SDS011;57934;51.532;7.684;2022-11-20T04:51:27;22.50;;;15.43;;
70467;SDS011;57934;51.532;7.684;2022-11-20T04:53:53;26.17;;;15.55;;
70467;SDS011;57934;51.532;7.684;2022-11-20T04:56:20;23.70;;;14.77;;
70467;SDS011;57934;51.532;7.684;2022-11-20T04:58:46;24.38;;;14.85;;
70467;SDS011;57934;51.532;7.684;2022-11-20T05:01:22;24.15;;;15.05;;
70467;SDS011;57934;51.532;7.684;2022-11-20T05:03:49;24.95;;;14.93;;
70467;SDS011;57934;51.532;7.684;2022-11-20T05:06:17;24.38;;;14.82;;
70467;SDS011;57934;51.532;7.684;2022-11-20T05:08:45;23.25;;;14.77;;
70467;SDS011;57934;51.532;7.684;2022-11-20T05:11:13;26.92;;;14.98;;
70467;SDS011;57934;51.532;7.684;2022-11-20T05:13:41;22.38;;;14.80;;
70467;SDS011;57934;51.532;7.684;2022-11-20T05:16:08;22.73;;;14.38;;
70467;SDS011;57934;51.532;7.684;2022-11-20T05:18:37;20.88;;;14.32;;
70467;SDS011;57934;51.532;7.684;2022-11-20T05:21:04;21.73;;;14.90;;
70467;SDS011;57934;51.532;7.684;2022-11-20T05:23:31;22.63;;;13.77;;
70467;SDS011;57934;51.532;7.684;2022-11-20T05:25:58;21.90;;;13.60;;
70467;SDS011;57934;51.532;7.684;2022-11-20T05:28:25;22.08;;;14.52;;
70467;SDS011;57934;51.532;7.684;2022-11-20T05:30:52;22.05;;;13.02;;
70467;SDS011;57934;51.532;7.684;2022-11-20T05:33:19;23.55;;;14.93;;
70467;SDS011;57934;51.532;7.684;2022-11-20T05:35:45;26.15;;;16.67;;
70467;SDS011;57934;51.532;7.684;2022-11-20T05:38:11;26.13;;;16.27;;
70467;SDS011;57934;51.532;7.684;2022-11-20T05:40:37;25.85;;;15.77;;
70467;SDS011;57934;51.532;7.684;2022-11-20T05:43:03;23.63;;;16.33;;
70467;SDS011;57934;51.532;7.684;2022-11-20T05:45:29;23.38;;;14.77;;
70467;SDS011;57934;51.532;7.684;2022-11-20T05:47:59;24.13;;;14.98;;
70467;SDS011;57934;51.532;7.684;2022-11-20T05:50:28;22.42;;;14.32;;
70467;SDS011;57934;51.532;7.684;2022-11-20T05:52:55;24.05;;;14.25;;
70467;SDS011;57934;51.532;7.684;2022-11-20T05:55:23;23.38;;;15.13;;
70467;SDS011;57934;51.532;7.684;2022-11-20T05:57:49;25.85;;;14.48;;
70467;SDS011;57934;51.532;7.684;2022-11-20T06:00:15;25.65;;;15.18;;
70467;SDS011;57934;51.532;7.684;2022-11-20T06:02:42;24.08;;;14.50;;
70467;SDS011;57934;51.532;7.684;2022-11-20T06:05:08;24.33;;;14.48;;
70467;SDS011;57934;51.532;7.684;2022-11-20T06:07:34;26.10;;;14.68;;
70467;SDS011;57934;51.532;7.684;2022-11-20T06:10:00;22.95;;;13.95;;
70467;SDS011;57934;51.532;7.684;2022-11-20T06:12:26;22.77;;;14.57;;
70467;SDS011;57934;51.532;7.684;2022-11-20T06:14:52;25.55;;;15.30;;
70467;SDS011;57934;51.532;7.684;2022-11-20T06:17:18;23.38;;;15.02;;
70467;SDS011;57934;51.532;7.684;2022-11-20T06:19:44;25.55;;;15.15;;
70467;SDS011;57934;51.532;7.684;2022-11-20T06:22:10;26.33;;;15.05;;
70467;SDS011;57934;51.532;7.684;2022-11-20T06:24:36;23.65;;;14.60;;
70467;SDS011;57934;51.532;7.684;2022-11-20T06:27:02;28.27;;;16.35;;
70467;SDS011;57934;51.532;7.684;2022-11-20T06:29:28;23.90;;;15.20;;
70467;SDS011;57934;51.532;7.684;2022-11-20T06:31:54;27.38;;;15.60;;
70467;SDS011;57934;51.532;7.684;2022-11-20T06:34:20;24.42;;;15.20;;
70467;SDS011;57934;51.532;7.684;2022-11-20T06:36:46;23.17;;;14.75;;
70467;SDS011;57934;51.532;7.684;2022-11-20T06:39:12;23.52;;;13.90;;
70467;SDS011;57934;51.532;7.684;2022-11-20T06:41:38;24.02;;;14.30;;
70467;SDS011;57934;51.532;7.684;2022-11-20T06:44:04;24.35;;;14.80;;
70467;SDS011;57934;51.532;7.684;2022-11-20T06:46:31;27.23;;;15.23;;
70467;SDS011;57934;51.532;7.684;2022-11-20T06:48:57;26.60;;;15.23;;
70467;SDS011;57934;51.532;7.684;2022-11-20T06:51:24;26.02;;;15.68;;
70467;SDS011;57934;51.532;7.684;2022-11-20T06:53:50;26.67;;;14.95;;
70467;SDS011;57934;51.532;7.684;2022-11-20T06:56:16;24.80;;;14.98;;
70467;SDS011;57934;51.532;7.684;2022-11-20T06:58:42;27.60;;;15.25;;
70467;SDS011;57934;51.532;7.684;2022-11-20T07:01:12;24.05;;;14.82;;
70467;SDS011;57934;51.532;7.684;2022-11-20T07:03:39;26.50;;;15.65;;
70467;SDS011;57934;51.532;7.684;2022-11-20T07:06:06;27.02;;;15.30;;
70467;SDS011;57934;51.532;7.684;2022-11-20T07:08:33;24.73;;;15.15;;
70467;SDS011;57934;51.532;7.684;2022-11-20T07:10:59;28.17;;;15.63;;
70467;SDS011;57934;51.532;7.684;2022-11-20T07:13:27;25.08;;;15.05;;
70467;SDS011;57934;51.532;7.684;2022-11-20T07:15:54;26.40;;;15.43;;
70467;SDS011;57934;51.532;7.684;2022-11-20T07:18:20;26.75;;;15.60;;
70467;SDS011;57934;51.532;7.684;2022-11-20T07:20:46;27.33;;;15.52;;
70467;SDS011;57934;51.532;7.684;2022-11-20T07:23:13;23.73;;;14.88;;
70467;SDS011;57934;51.532;7.684;2022-11-20T07:25:39;28.08;;;15.60;;
70467;SDS011;57934;51.532;7.684;2022-11-20T07:28:05;25.63;;;15.68;;
70467;SDS011;57934;51.532;7.684;2022-11-20T07:30:31;23.08;;;15.07;;
70467;SDS011;57934;51.532;7.684;2022-11-20T07:32:57;25.08;;;16.33;;
70467;SDS011;57934;51.532;7.684;2022-11-20T07:35:23;29.98;;;16.60;;
70467;SDS011;57934;51.532;7.684;2022-11-20T07:37:50;27.05;;;16.50;;
70467;SDS011;57934;51.532;7.684;2022-11-20T07:40:16;30.13;;;17.30;;
70467;SDS011;57934;51.532;7.684;2022-11-20T07:42:49;27.38;;;16.58;;
70467;SDS011;57934;51.532;7.684;2022-11-20T07:45:17;27.15;;;16.58;;
70467;SDS011;57934;51.532;7.684;2022-11-20T07:47:44;25.77;;;16.17;;
70467;SDS011;57934;51.532;7.684;2022-11-20T07:50:10;26.85;;;16.20;;
70467;SDS011;57934;51.532;7.684;2022-11-20T07:52:37;23.73;;;15.00;;
70467;SDS011;57934;51.532;7.684;2022-11-20T07:55:03;23.63;;;14.95;;
70467;SDS011;57934;51.532;7.684;2022-11-20T07:57:29;20.67;;;13.05;;
70467;SDS011;57934;51.532;7.684;2022-11-20T07:59:56;20.05;;;13.68;;
70467;SDS011;57934;51.532;7.684;2022-11-20T08:02:22;19.55;;;13.52;;
70467;SDS011;57934;51.532;7.684;2022-11-20T08:04:48;21.10;;;13.65;;
70467;SDS011;57934;51.532;7.684;2022-11-20T08:07:14;22.30;;;13.63;;
70467;SDS011;57934;51.532;7.684;2022-11-20T08:09:40;21.08;;;12.65;;
70467;SDS011;57934;51.532;7.684;2022-11-20T08:12:06;20.13;;;13.02;;
70467;SDS011;57934;51.532;7.684;2022-11-20T08:14:51;20.48;;;13.93;;
70467;SDS011;57934;51.532;7.684;2022-11-20T08:17:17;20.23;;;14.05;;
70467;SDS011;57934;51.532;7.684;2022-11-20T08:19:43;17.88;;;12.85;;
70467;SDS011;57934;51.532;7.684;2022-11-20T08:22:09;21.48;;;13.40;;
70467;SDS011;57934;51.532;7.684;2022-11-20T08:24:35;21.38;;;13.57;;
70467;SDS011;57934;51.532;7.684;2022-11-20T08:27:01;20.20;;;13.38;;
70467;SDS011;57934;51.532;7.684;2022-11-20T08:29:27;18.63;;;13.52;;
70467;SDS011;57934;51.532;7.684;2022-11-20T08:31:53;20.25;;;13.80;;
70467;SDS011;57934;51.532;7.684;2022-11-20T08:34:19;24.38;;;14.93;;
70467;SDS011;57934;51.532;7.684;2022-11-20T08:36:45;20.23;;;14.25;;
70467;SDS011;57934;51.532;7.684;2022-11-20T08:39:12;21.48;;;13.82;;
70467;SDS011;57934;51.532;7.684;2022-11-20T08:41:38;16.83;;;13.20;;
70467;SDS011;57934;51.532;7.684;2022-11-20T08:44:05;19.38;;;12.93;;
70467;SDS011;57934;51.532;7.684;2022-11-20T08:46:34;17.52;;;13.68;;
70467;SDS011;57934;51.532;7.684;2022-11-20T08:49:05;18.30;;;13.48;;
70467;SDS011;57934;51.532;7.684;2022-11-20T08:51:32;19.70;;;14.07;;
70467;SDS011;57934;51.532;7.684;2022-11-20T08:53:58;18.02;;;13.32;;
70467;SDS011;57934;51.532;7.684;2022-11-20T08:56:24;17.25;;;13.18;;
70467;SDS011;57934;51.532;7.684;2022-11-20T08:58:50;18.00;;;14.27;;
70467;SDS011;57934;51.532;7.684;2022-11-20T09:01:19;16.83;;;13.18;;
70467;SDS011;57934;51.532;7.684;2022-11-20T09:03:46;18.85;;;12.85;;
70467;SDS011;57934;51.532;7.684;2022-11-20T09:06:13;16.95;;;12.52;;
70467;SDS011;57934;51.532;7.684;2022-11-20T09:08:40;16.98;;;13.15;;
70467;SDS011;57934;51.532;7.684;2022-11-20T09:11:06;16.02;;;12.25;;
70467;SDS011;57934;51.532;7.684;2022-11-20T09:13:34;16.42;;;12.27;;
70467;SDS011;57934;51.532;7.684;2022-11-20T09:16:02;14.77;;;11.93;;
70467;SDS011;57934;51.532;7.684;2022-11-20T09:18:30;17.83;;;12.15;;
70467;SDS011;57934;51.532;7.684;2022-11-20T09:21:02;15.30;;;12.25;;
70467;SDS011;57934;51.532;7.684;2022-11-20T09:23:31;13.88;;;11.68;;
70467;SDS011;57934;51.532;7.684;2022-11-20T09:26:17;13.85;;;11.68;;
70467;SDS011;57934;51.532;7.684;2022-11-20T09:28:45;15.63;;;11.63;;
70467;SDS011;57934;51.532;7.684;2022-11-20T09:31:17;16.48;;;12.35;;
70467;SDS011;57934;51.532;7.684;2022-11-20T09:33:48;15.45;;;11.95;;
70467;SDS011;57934;51.532;7.684;2022-11-20T09:36:14;16.02;;;11.05;;
70467;SDS011;57934;51.532;7.684;2022-11-20T09:38:41;16.95;;;12.30;;
70467;SDS011;57934;51.532;7.684;2022-11-20T09:41:14;14.82;;;12.13;;
70467;SDS011;57934;51.532;7.684;2022-11-20T09:46:55;16.42;;;12.18;;
70467;SDS011;57934;51.532;7.684;2022-11-20T09:52:08;15.88;;;11.45;;
70467;SDS011;57934;51.532;7.684;2022-11-20T09:54:38;21.17;;;12.57;;
70467;SDS011;57934;51.532;7.684;2022-11-20T09:57:17;19.50;;;12.98;;
70467;SDS011;57934;51.532;7.684;2022-11-20T10:00:05;14.10;;;11.23;;
70467;SDS011;57934;51.532;7.684;2022-11-20T10:02:41;16.05;;;10.90;;
70467;SDS011;57934;51.532;7.684;2022-11-20T10:05:19;16.27;;;11.48;;
70467;SDS011;57934;51.532;7.684;2022-11-20T10:26:46;20.77;;;14.00;;
70467;SDS011;57934;51.532;7.684;2022-11-20T10:29:29;20.55;;;13.57;;
70467;SDS011;57934;51.532;7.684;2022-11-20T10:34:32;17.10;;;11.93;;
70467;SDS011;57934;51.532;7.684;2022-11-20T10:37:18;21.98;;;13.73;;
70467;SDS011;57934;51.532;7.684;2022-11-20T10:39:54;20.13;;;13.23;;
70467;SDS011;57934;51.532;7.684;2022-11-20T10:42:43;21.40;;;13.38;;
70467;SDS011;57934;51.532;7.684;2022-11-20T10:50:53;18.77;;;13.00;;
70467;SDS011;57934;51.532;7.684;2022-11-20T10:56:30;23.50;;;13.60;;
70467;SDS011;57934;51.532;7.684;2022-11-20T11:01:40;20.10;;;13.32;;
70467;SDS011;57934;51.532;7.684;2022-11-20T11:07:05;18.27;;;13.18;;
70467;SDS011;57934;51.532;7.684;2022-11-20T11:09:39;20.13;;;12.40;;
70467;SDS011;57934;51.532;7.684;2022-11-20T11:12:09;16.13;;;11.27;;
70467;SDS011;57934;51.532;7.684;2022-11-20T11:14:57;16.88;;;11.88;;
70467;SDS011;57934;51.532;7.684;2022-11-20T11:22:31;19.50;;;13.13;;
70467;SDS011;57934;51.532;7.684;2022-11-20T11:27:52;19.55;;;13.32;;
70467;SDS011;57934;51.532;7.684;2022-11-20T11:30:23;19.17;;;12.70;;
70467;SDS011;57934;51.532;7.684;2022-11-20T11:33:02;19.95;;;13.52;;
70467;SDS011;57934;51.532;7.684;2022-11-20T11:35:30;19.20;;;13.80;;
70467;SDS011;57934;51.532;7.684;2022-11-20T11:38:03;17.70;;;13.23;;
70467;SDS011;57934;51.532;7.684;2022-11-20T11:40:33;18.00;;;12.85;;
70467;SDS011;57934;51.532;7.684;2022-11-20T11:43:04;18.13;;;12.52;;
70467;SDS011;57934;51.532;7.684;2022-11-20T11:45:52;21.15;;;13.82;;
70467;SDS011;57934;51.532;7.684;2022-11-20T11:48:20;18.25;;;13.20;;
70467;SDS011;57934;51.532;7.684;2022-11-20T11:50:50;21.73;;;14.98;;
70467;SDS011;57934;51.532;7.684;2022-11-20T11:53:18;20.25;;;13.13;;
70467;SDS011;57934;51.532;7.684;2022-11-20T11:55:53;20.05;;;12.18;;
70467;SDS011;57934;51.532;7.684;2022-11-20T12:01:21;18.02;;;12.60;;
70467;SDS011;57934;51.532;7.684;2022-11-20T12:06:30;18.10;;;12.65;;
70467;SDS011;57934;51.532;7.684;2022-11-20T12:09:04;15.38;;;10.25;;
70467;SDS011;57934;51.532;7.684;2022-11-20T12:16:49;13.45;;;9.30;;
70467;SDS011;57934;51.532;7.684;2022-11-20T12:19:18;13.15;;;9.68;;
70467;SDS011;57934;51.532;7.684;2022-11-20T12:22:06;15.85;;;9.43;;
70467;SDS011;57934;51.532;7.684;2022-11-20T12:30:23;14.13;;;9.95;;
70467;SDS011;57934;51.532;7.684;2022-11-20T12:40:54;13.20;;;9.43;;
70467;SDS011;57934;51.532;7.684;2022-11-20T12:56:20;14.50;;;10.82;;
70467;SDS011;57934;51.532;7.684;2022-11-20T13:02:16;15.18;;;10.30;;
70467;SDS011;57934;51.532;7.684;2022-11-20T13:07:47;16.50;;;11.38;;
70467;SDS011;57934;51.532;7.684;2022-11-20T13:10:31;14.82;;;10.77;;
70467;SDS011;57934;51.532;7.684;2022-11-20T13:18:25;17.25;;;12.40;;
70467;SDS011;57934;51.532;7.684;2022-11-20T13:20:52;14.63;;;10.80;;
70467;SDS011;57934;51.532;7.684;2022-11-20T13:23:27;18.25;;;12.57;;
70467;SDS011;57934;51.532;7.684;2022-11-20T13:26:06;17.42;;;11.90;;
70467;SDS011;57934;51.532;7.684;2022-11-20T13:28:41;15.57;;;10.63;;
70467;SDS011;57934;51.532;7.684;2022-11-20T13:31:28;16.13;;;10.05;;
70467;SDS011;57934;51.532;7.684;2022-11-20T13:33:56;17.05;;;11.52;;
70467;SDS011;57934;51.532;7.684;2022-11-20T13:36:26;17.98;;;12.05;;
70467;SDS011;57934;51.532;7.684;2022-11-20T13:39:00;16.65;;;11.68;;
70467;SDS011;57934;51.532;7.684;2022-11-20T13:41:31;17.17;;;12.07;;
70467;SDS011;57934;51.532;7.684;2022-11-20T13:46:37;20.10;;;13.63;;
70467;SDS011;57934;51.532;7.684;2022-11-20T13:49:32;19.88;;;13.45;;
70467;SDS011;57934;51.532;7.684;2022-11-20T14:00:31;23.30;;;14.98;;
70467;SDS011;57934;51.532;7.684;2022-11-20T14:05:34;28.52;;;17.58;;
70467;SDS011;57934;51.532;7.684;2022-11-20T14:08:03;28.75;;;18.23;;
70467;SDS011;57934;51.532;7.684;2022-11-20T14:10:31;25.50;;;16.80;;
70467;SDS011;57934;51.532;7.684;2022-11-20T14:12:58;29.35;;;17.67;;
70467;SDS011;57934;51.532;7.684;2022-11-20T14:15:35;25.90;;;17.27;;
70467;SDS011;57934;51.532;7.684;2022-11-20T14:18:11;25.20;;;16.10;;
70467;SDS011;57934;51.532;7.684;2022-11-20T14:20:45;27.17;;;16.80;;
70467;SDS011;57934;51.532;7.684;2022-11-20T14:23:12;26.17;;;15.80;;
70467;SDS011;57934;51.532;7.684;2022-11-20T14:25:50;23.70;;;15.43;;
70467;SDS011;57934;51.532;7.684;2022-11-20T14:28:26;23.15;;;14.85;;
70467;SDS011;57934;51.532;7.684;2022-11-20T14:30:54;27.13;;;13.90;;
70467;SDS011;57934;51.532;7.684;2022-11-20T14:33:22;24.10;;;14.75;;
70467;SDS011;57934;51.532;7.684;2022-11-20T14:35:52;22.70;;;14.63;;
70467;SDS011;57934;51.532;7.684;2022-11-20T14:38:29;22.25;;;14.73;;
70467;SDS011;57934;51.532;7.684;2022-11-20T14:41:07;21.92;;;14.57;;
70467;SDS011;57934;51.532;7.684;2022-11-20T14:43:44;25.52;;;15.32;;
70467;SDS011;57934;51.532;7.684;2022-11-20T14:46:11;21.02;;;13.90;;
70467;SDS011;57934;51.532;7.684;2022-11-20T14:48:45;23.08;;;15.57;;
70467;SDS011;57934;51.532;7.684;2022-11-20T14:51:23;25.95;;;16.10;;
70467;SDS011;57934;51.532;7.684;2022-11-20T14:53:53;24.92;;;15.85;;
70467;SDS011;57934;51.532;7.684;2022-11-20T14:56:23;26.58;;;15.70;;
70467;SDS011;57934;51.532;7.684;2022-11-20T14:58:56;24.00;;;13.90;;
70467;SDS011;57934;51.532;7.684;2022-11-20T15:01:30;26.87;;;15.67;;
70467;SDS011;57934;51.532;7.684;2022-11-20T15:04:09;27.05;;;16.73;;
70467;SDS011;57934;51.532;7.684;2022-11-20T15:06:51;24.50;;;15.55;;
70467;SDS011;57934;51.532;7.684;2022-11-20T15:09:19;26.52;;;15.10;;
70467;SDS011;57934;51.532;7.684;2022-11-20T15:11:53;20.08;;;13.57;;
70467;SDS011;57934;51.532;7.684;2022-11-20T15:14:22;19.75;;;13.23;;
70467;SDS011;57934;51.532;7.684;2022-11-20T15:16:49;20.25;;;13.60;;
70467;SDS011;57934;51.532;7.684;2022-11-20T15:19:17;22.55;;;14.10;;
70467;SDS011;57934;51.532;7.684;2022-11-20T15:21:46;22.60;;;13.95;;
70467;SDS011;57934;51.532;7.684;2022-11-20T15:24:12;22.88;;;13.73;;
70467;SDS011;57934;51.532;7.684;2022-11-20T15:26:38;23.80;;;13.60;;
70467;SDS011;57934;51.532;7.684;2022-11-20T15:29:08;22.92;;;13.93;;
70467;SDS011;57934;51.532;7.684;2022-11-20T15:31:36;24.90;;;15.10;;
70467;SDS011;57934;51.532;7.684;2022-11-20T15:34:04;25.90;;;14.98;;
70467;SDS011;57934;51.532;7.684;2022-11-20T15:36:36;22.17;;;14.25;;
70467;SDS011;57934;51.532;7.684;2022-11-20T15:39:31;22.08;;;13.90;;
70467;SDS011;57934;51.532;7.684;2022-11-20T15:41:57;24.52;;;14.80;;
70467;SDS011;57934;51.532;7.684;2022-11-20T15:44:23;25.88;;;15.23;;
70467;SDS011;57934;51.532;7.684;2022-11-20T15:46:49;27.85;;;15.98;;
70467;SDS011;57934;51.532;7.684;2022-11-20T15:49:16;28.42;;;16.25;;
70467;SDS011;57934;51.532;7.684;2022-11-20T15:51:49;29.42;;;17.23;;
70467;SDS011;57934;51.532;7.684;2022-11-20T15:54:17;28.08;;;16.95;;
70467;SDS011;57934;51.532;7.684;2022-11-20T15:56:46;28.98;;;16.95;;
70467;SDS011;57934;51.532;7.684;2022-11-20T15:59:13;28.52;;;17.08;;
70467;SDS011;57934;51.532;7.684;2022-11-20T16:01:42;29.58;;;18.50;;
70467;SDS011;57934;51.532;7.684;2022-11-20T16:04:15;31.20;;;18.10;;
70467;SDS011;57934;51.532;7.684;2022-11-20T16:06:42;32.88;;;18.75;;
70467;SDS011;57934;51.532;7.684;2022-11-20T16:09:08;32.05;;;17.98;;
70467;SDS011;57934;51.532;7.684;2022-11-20T16:11:35;29.75;;;18.35;;
70467;SDS011;57934;51.532;7.684;2022-11-20T16:14:04;30.83;;;18.23;;
70467;SDS011;57934;51.532;7.684;2022-11-20T16:16:50;33.72;;;19.17;;
70467;SDS011;57934;51.532;7.684;2022-11-20T16:19:16;35.70;;;19.38;;
70467;SDS011;57934;51.532;7.684;2022-11-20T16:21:43;37.67;;;19.73;;
70467;SDS011;57934;51.532;7.684;2022-11-20T16:24:10;34.88;;;19.25;;
70467;SDS011;57934;51.532;7.684;2022-11-20T16:26:39;36.70;;;20.30;;
70467;SDS011;57934;51.532;7.684;2022-11-20T16:29:06;39.30;;;20.90;;